CheckWX is a tool to help pilots better visualize weather data.  It is not intended as a substitute for an official pre-flight weather briefing.

14:05:12 UTC

KWRI TAF
Mc Guire Field (Joint Base Mc Guire Dix Lakehurst) Airport
Wrightstown, New Jersey, USA
TAF AMD KWRI 311253Z 3110/0116 08008KT 9999 NSW OVC015 QNH2999INS BECMG 3117/3118 08009KT 9999 BKN020 QNH2994INS BECMG 3123/3124 09006KT 9999 BKN020 QNH2982INS BECMG 0107/0108 06010G15KT 9999 SCT030 BKN070 QNH2980INS TX09/3118Z TN05/0112Z

Mar-31@
10:00 UTC

Mar-31 @ 10:00 UTC

Mar-31@
17:00 UTC

Mar-31 @ 17:00 UTC

TAF AMD KWRI 311253Z 3110/0116 08008KT 9999 NSW OVC015 QNH2999INS
Wind
  • 080° at 8 KTS
Conditions
No significant weather
Cloud Levels
  • Overcast at 1,500' AGL

Mar-31@
17:00 UTC

Mar-31 @ 17:00 UTC

Mar-31@
23:00 UTC

Mar-31 @ 23:00 UTC

BECMG 3117/3118 08009KT 9999 BKN020 QNH2994INS

Becoming

Becoming Conditions expected by Tue, Mar 31, 2020 @ 18:00 UTC

Wind
  • 080° at 9 KTS
Conditions
No significant weather
Cloud Levels
  • Broken at 2,000' AGL

Mar-31@
23:00 UTC

Mar-31 @ 23:00 UTC

Apr-1@
07:00 UTC

Apr-1 @ 07:00 UTC

BECMG 3123/3124 09006KT 9999 BKN020 QNH2982INS

Becoming

Becoming Conditions expected by Wed, Apr 1, 2020 @ 00:00 UTC

Wind
  • 090° at 6 KTS
Conditions
No significant weather
Cloud Levels
  • Broken at 2,000' AGL

Apr-1@
07:00 UTC

Apr-1 @ 07:00 UTC

Apr-1@
16:00 UTC

Apr-1 @ 16:00 UTC

BECMG 0107/0108 06010G15KT 9999 SCT030 BKN070 QNH2980INS TX09/3118Z TN05/0112Z

Becoming

Becoming Conditions expected by Wed, Apr 1, 2020 @ 08:00 UTC

Wind
  • 060° at 10 KTS
  • {Gusting to 15 KTS
Conditions
No significant weather
Cloud Levels
  • Scattered at 3,000' AGL
  • Broken at 7,000' AGL